Thunder radar more information blitzortung!


avis per Pluja more information rain snow radar


Visita la nostra xarxa de llocs de meteo:

Template documentation
and downloads

And another site



Rain From: 18-11-2018 11:00 Until: 20:59 warning for: Rain Level: Yellow info button

Pagina Historial Weather Underground text

Diari Resum Desembre 28, 2017 Unitats:  Mètric    Imperial   Tant
« Previous Dia
SegĂźent Dia »
Diari Setmana Mensual Anual Personalitzada
  Maxima: Minima: Media:
Temperatura: -17.8 °C 3 °C 7.7 °C
Punt de rosada: -17.8 °C -2.6 °C -0.1 °C
Humitat: Humidity % 48 % 58 %
Wind Speed: 0 km/h 0 km/h 4.8 km/h
RĂ fegues de vent: 0 km/h - -
Vent:- - South
Pression baro: 0 hPa 1005 hPa -
Precipitacions: 0 mm    
Historical Graphs
 
 
Dades de taula per Desembre 28, 2017
Temps Temperatura Punt de rosada Pression baro Vent Wind Speed RĂ fegues de vent Humitat Rainfall Rate (Hourly)
-17.8 °C -17.8 °C 0 hPa Calm     Humidity % 0 mm
00:01 5 °C -2.6 °C 1006 hPa SW 9.3 km/h 9.3 km/h 58 % 0 mm
00:04 5 °C -2.6 °C 1006 hPa WSW 11.1 km/h 11.1 km/h 58 % 0 mm
00:06 5 °C -2.6 °C 1006 hPa WSW 13 km/h 13 km/h 58 % 0 mm
00:10 4.8 °C -1.7 °C 1005 hPa West 3.2 km/h 11.3 km/h 63 % 0 mm
00:20 4.7 °C -1.8 °C 1005 hPa WSW 4.8 km/h 9.7 km/h 63 % 0 mm
00:30 4.8 °C -1.7 °C 1005 hPa WSW 3.2 km/h 6.4 km/h 63 % 0 mm
00:50 4.6 °C -1.8 °C 1006 hPa SW 1.6 km/h 3.2 km/h 63 % 0 mm
01:00 4.5 °C -1.9 °C 1006 hPa SW 3.2 km/h 6.4 km/h 63 % 0 mm
01:10 4.5 °C -1.9 °C 1006 hPa SW 4.8 km/h 6.4 km/h 63 % 0 mm
01:20 4.6 °C -1.8 °C 1006 hPa SW 3.2 km/h 6.4 km/h 63 % 0 mm
01:30 4.5 °C -1.9 °C 1006 hPa SW 1.6 km/h 4.8 km/h 63 % 0 mm
01:40 4.5 °C -1.9 °C 1006 hPa WSW 4.8 km/h 4.8 km/h 63 % 0 mm
01:50 4.5 °C -1.9 °C 1006 hPa WSW 4.8 km/h 4.8 km/h 63 % 0 mm
02:20 4.8 °C -1.4 °C 1006 hPa WSW 8 km/h 9.7 km/h 64 % 0 mm
02:30 4.7 °C -1.6 °C 1006 hPa WSW 4.8 km/h 8 km/h 64 % 0 mm
02:40 4.8 °C -1.4 °C 1006 hPa WSW 4.8 km/h 8 km/h 64 % 0 mm
02:50 5.1 °C -1.2 °C 1006 hPa WSW 4.8 km/h 9.7 km/h 64 % 0 mm
03:00 5.4 °C -0.9 °C 1006 hPa WSW 4.8 km/h 4.8 km/h 64 % 0 mm
03:10 5.6 °C -0.9 °C 1007 hPa WSW 4.8 km/h 4.8 km/h 63 % 0 mm
03:20 5.8 °C -0.7 °C 1006 hPa WSW 3.2 km/h 9.7 km/h 63 % 0 mm
03:30 6 °C -0.5 °C 1006 hPa WSW 9.7 km/h 9.7 km/h 63 % 0 mm
03:40 6.3 °C -0.4 °C 1007 hPa WSW 4.8 km/h 9.7 km/h 62 % 0 mm
03:50 6.5 °C -0.3 °C 1007 hPa WSW 9.7 km/h 11.3 km/h 62 % 0 mm
04:00 6.7 °C -0.3 °C 1007 hPa WSW 4.8 km/h 12.9 km/h 61 % 0 mm
04:10 6.9 °C -0.1 °C 1006 hPa WSW 8 km/h 9.7 km/h 61 % 0 mm
04:20 7.2 °C -0.1 °C 1007 hPa WSW 9.7 km/h 9.7 km/h 60 % 0 mm
04:30 7.6 °C 0.3 °C 1007 hPa WSW 4.8 km/h 8 km/h 60 % 0 mm
04:40 8.1 °C 0.6 °C 1007 hPa West 4.8 km/h 9.7 km/h 59 % 0 mm
04:50 8.3 °C 0.5 °C 1007 hPa West 4.8 km/h 8 km/h 58 % 0 mm
08:10 12.2 °C 1.5 °C 1006 hPa NW 4.8 km/h 9.7 km/h 48 % 0 mm
08:20 12 °C 1.3 °C 1006 hPa WNW 4.8 km/h 6.4 km/h 48 % 0 mm
08:30 11.9 °C 1.5 °C 1006 hPa WNW 4.8 km/h 9.7 km/h 49 % 0 mm
08:40 11.7 °C 1.1 °C 1006 hPa WNW 9.7 km/h 9.7 km/h 48 % 0 mm
08:50 11.6 °C 1.2 °C 1006 hPa West 4.8 km/h 9.7 km/h 49 % 0 mm
09:00 11.5 °C 1.2 °C 1006 hPa WSW 4.8 km/h 9.7 km/h 49 % 0 mm
09:10 11.4 °C 1.1 °C 1006 hPa WSW 3.2 km/h 9.7 km/h 49 % 0 mm
09:20 11.4 °C 1.1 °C 1006 hPa WSW 4.8 km/h 8 km/h 49 % 0 mm
09:30 11.3 °C 1.2 °C 1006 hPa WSW 4.8 km/h 8 km/h 50 % 0 mm
09:40 11.1 °C 1.1 °C 1006 hPa WSW 11.3 km/h 12.9 km/h 50 % 0 mm
09:50 10.9 °C 0.9 °C 1006 hPa WSW 9.7 km/h 12.9 km/h 50 % 0 mm
10:00 10.8 °C 0.8 °C 1006 hPa WSW 8 km/h 14.5 km/h 50 % 0 mm
10:10 10.7 °C 0.9 °C 1006 hPa WSW 4.8 km/h 9.7 km/h 51 % 0 mm
10:20 10.6 °C 0.9 °C 1005 hPa West 3.2 km/h 6.4 km/h 51 % 0 mm
10:30 10.6 °C 0.9 °C 1005 hPa WSW 4.8 km/h 12.9 km/h 51 % 0 mm
10:40 10.4 °C 0.7 °C 1006 hPa West 4.8 km/h 4.8 km/h 51 % 0 mm
10:50 10.4 °C 0.9 °C 1006 hPa West 8 km/h 8 km/h 52 % 0 mm
10:52 8.4 °C 0.1 °C 1007 hPa NW 3.7 km/h 6.4 km/h 56 % 0 mm
10:53 8.5 °C 0.2 °C 1007 hPa SW 10.3 km/h 10.3 km/h 56 % 0 mm
10:54 8.5 °C 0.2 °C 1007 hPa SW 9.3 km/h 9.3 km/h 56 % 0 mm
10:59 8.7 °C 0.4 °C 1007 hPa West 7.4 km/h 7.4 km/h 56 % 0 mm
11:04 8.9 °C 0.3 °C 1007 hPa WNW 18.5 km/h 18.5 km/h 55 % 0 mm
11:05 8.9 °C 0.3 °C 1007 hPa West 18.5 km/h 18.5 km/h 55 % 0 mm
11:10 9 °C 0.4 °C 1008 hPa WNW 9.3 km/h 9.3 km/h 55 % 0 mm
11:14 9.1 °C 0.3 °C 1008 hPa WSW 7.9 km/h 7.9 km/h 54 % 0 mm
11:16 9.1 °C 0.3 °C 1008 hPa NW 5.6 km/h 7.6 km/h 54 % 0 mm
11:20 10.1 °C 0.7 °C 1006 hPa WSW 3.2 km/h 4.8 km/h 52 % 0 mm
11:21 9.3 °C 0.4 °C 1008 hPa WNW 7.4 km/h 7.4 km/h 54 % 0 mm
11:22 9.4 °C 0.6 °C 1008 hPa WNW 16.1 km/h 16.1 km/h 54 % 0 mm
11:26 9.4 °C 0.6 °C 1007 hPa SSE 5.8 km/h 7.6 km/h 54 % 0 mm
11:27 9.5 °C 0.7 °C 1007 hPa SSE 5.8 km/h 7.6 km/h 54 % 0 mm
11:32 9.7 °C 0.8 °C 1007 hPa WSW 5.8 km/h 5.8 km/h 54 % 0 mm
11:33 10 °C 1.1 °C 1007 hPa West 5.6 km/h   54 % 0 mm
11:38 10.1 °C 1.2 °C 1007 hPa WSW 7.4 km/h 7.4 km/h 54 % 0 mm
11:39 10.1 °C 1.2 °C 1007 hPa SW 7.4 km/h 7.4 km/h 54 % 0 mm
11:40 10.2 °C 1.3 °C 1007 hPa WSW 5.8 km/h 5.8 km/h 54 % 0 mm
11:45 10.1 °C 0.9 °C 1007 hPa North 5.6 km/h 5.6 km/h 53 % 0 mm
11:49 10.2 °C 1.1 °C 1007 hPa NW 3.7 km/h 3.7 km/h 53 % 0 mm
11:50 10.2 °C 1.1 °C 1007 hPa SW 3.7 km/h 3.9 km/h 53 % 0 mm
11:55 10.2 °C 1.1 °C 1007 hPa WNW 7.4 km/h 7.4 km/h 53 % 0 mm
11:56 10.3 °C 1.1 °C 1007 hPa West 5.8 km/h 5.8 km/h 53 % 0 mm
12:01 10.7 °C 1.5 °C 1007 hPa WNW 3.7 km/h 3.7 km/h 53 % 0 mm
12:03 10.8 °C 1.6 °C 1007 hPa West 3.9 km/h 4.2 km/h 53 % 0 mm
12:07 10.9 °C 1.7 °C 1007 hPa SW 3.9 km/h 3.9 km/h 53 % 0 mm
12:08 11 °C 1.8 °C 1007 hPa WSW 5 km/h 5 km/h 53 % 0 mm
12:12 10.7 °C 1.2 °C 1007 hPa NNE 3.7 km/h 3.7 km/h 52 % 0 mm
12:14 10.8 °C 1.3 °C 1007 hPa WNW 6.1 km/h 6.1 km/h 52 % 0 mm
12:18 10.9 °C 1.4 °C 1007 hPa NNW 13 km/h 13 km/h 52 % 0 mm
12:23 10.8 °C 1.3 °C 1006 hPa West 5.6 km/h 5.6 km/h 52 % 0 mm
12:28 11.4 °C 1.9 °C 1006 hPa WSW 3.7 km/h 3.7 km/h 52 % 0 mm
12:29 11.5 °C 2 °C 1006 hPa NE 7.4 km/h 7.4 km/h 52 % 0 mm
12:34 11.7 °C 2.2 °C 1006 hPa SW 5.6 km/h 5.6 km/h 52 % 0 mm
12:40 11.7 °C 1.9 °C 1006 hPa WNW 7.4 km/h 7.4 km/h 51 % 0 mm
12:41 11.7 °C 1.9 °C 1006 hPa SSW 7.4 km/h 7.4 km/h 51 % 0 mm
12:42 11.6 °C 1.8 °C 1006 hPa West 7.4 km/h 7.4 km/h 51 % 0 mm
12:46 11.7 °C 1.9 °C 1006 hPa ESE 4.2 km/h 4.2 km/h 51 % 0 mm
12:51 11.9 °C 2.1 °C 1006 hPa NW 7.4 km/h 7.4 km/h 51 % 0 mm
12:56 11.9 °C 2.1 °C 1006 hPa West 6.9 km/h 6.9 km/h 51 % 0 mm
12:57 12 °C 2.2 °C 1006 hPa NW 7.4 km/h 7.4 km/h 51 % 0 mm
13:04 11.9 °C 1.8 °C 1006 hPa WSW 9.3 km/h 9.3 km/h 50 % 0 mm
13:09 12.2 °C 2.1 °C 1006 hPa SSW 7.4 km/h 7.4 km/h 50 % 0 mm
13:14 12.5 °C 2.3 °C 1006 hPa WNW 9.3 km/h 9.3 km/h 50 % 0 mm
13:15 12.5 °C 2.3 °C 1006 hPa WSW 7.4 km/h 7.4 km/h 50 % 0 mm
13:17 12.6 °C 2.4 °C 1006 hPa SW 7.4 km/h 7.4 km/h 50 % 0 mm
13:21 12.7 °C 2.6 °C 1006 hPa SW 14 km/h 14 km/h 50 % 0 mm
13:26 12.7 °C 2.2 °C 1005 hPa WNW 12.6 km/h 12.6 km/h 49 % 0 mm
13:31 12.3 °C 1.6 °C 1005 hPa WNW 9.5 km/h 9.5 km/h 48 % 0 mm
13:35 12 °C 1.3 °C 1005 hPa West 9.3 km/h 9.3 km/h 48 % 0 mm
13:37 11.8 °C 1.1 °C 1005 hPa West 5.6 km/h 8.7 km/h 48 % 0 mm
13:42 11.8 °C 1.1 °C 1006 hPa WSW 5.6 km/h 5.6 km/h 48 % 0 mm
13:47 11.7 °C 1.1 °C 1006 hPa WNW 3.7 km/h 3.7 km/h 48 % 0 mm
13:48 11.7 °C 1.1 °C 1006 hPa WSW 5.8 km/h 5.8 km/h 48 % 0 mm
13:51 11.7 °C 1.1 °C 1006 hPa ESE 3.7 km/h 4.7 km/h 48 % 0 mm
13:53 11.8 °C 1.1 °C 1006 hPa WNW 5.3 km/h 5.3 km/h 48 % 0 mm
13:58 12 °C 1.6 °C 1006 hPa West 5.6 km/h 5.6 km/h 49 % 0 mm
15:10 6.3 °C -0.7 °C 1010 hPa NE 4.8 km/h 4.8 km/h 61 % 0 mm
15:20 6.2 °C -0.6 °C 1010 hPa Calm   4.8 km/h 62 % 0 mm
15:40 6.1 °C -0.7 °C 1010 hPa NNE 3.2 km/h 4.8 km/h 62 % 0 mm
17:27 10 °C 0.8 °C 1006 hPa SW 5.6 km/h 5.6 km/h 53 % 0 mm
17:28 10 °C 0.8 °C 1006 hPa WSW 5.6 km/h 5.6 km/h 53 % 0 mm
17:33 9.9 °C 0.8 °C 1006 hPa West 3.2 km/h 3.2 km/h 53 % 0 mm
17:35 9.9 °C 0.8 °C 1006 hPa West 5.6 km/h 5.6 km/h 53 % 0 mm
17:37 9.8 °C 0.7 °C 1006 hPa WSW 3.7 km/h 3.9 km/h 53 % 0 mm
17:41 9.7 °C 0.6 °C 1007 hPa West 11.1 km/h 11.1 km/h 53 % 0 mm
17:45 9.6 °C 0.5 °C 1007 hPa West 7.4 km/h 7.4 km/h 53 % 0 mm
17:47 9.6 °C 0.5 °C 1007 hPa West 7.9 km/h 7.9 km/h 53 % 0 mm
17:52 9.4 °C 0.3 °C 1007 hPa WSW 11.1 km/h 11.1 km/h 53 % 0 mm
17:57 9.3 °C 0.4 °C 1007 hPa West 9.3 km/h 9.3 km/h 54 % 0 mm
17:58 9.3 °C 0.4 °C 1007 hPa West 9.3 km/h 9.3 km/h 54 % 0 mm
18:01 9.2 °C 0.4 °C 1007 hPa NW 6.4 km/h 6.4 km/h 54 % 0 mm
18:05 9.2 °C 0.4 °C 1007 hPa West 6.1 km/h 6.1 km/h 54 % 0 mm
18:10 9.1 °C 0.3 °C 1007 hPa WNW 9.3 km/h 9.3 km/h 54 % 0 mm
18:11 9 °C 0.2 °C 1007 hPa NE 7.4 km/h 7.4 km/h 54 % 0 mm
18:13 9 °C 0.2 °C 1007 hPa NNW 1.9 km/h   54 % 0 mm
18:18 8.8 °C 0 °C 1007 hPa NNE 3.7 km/h 3.7 km/h 54 % 0 mm
18:19 8.8 °C 0 °C 1007 hPa NNW 9.7 km/h 9.7 km/h 54 % 0 mm
18:24 8.7 °C -0.1 °C 1007 hPa NNW 7.4 km/h 7.4 km/h 54 % 0 mm
18:30 4.8 °C -0.8 °C 1011.7 hPa Calm   3.2 km/h 67 % 0 mm
18:34 8.5 °C -0.1 °C 1007 hPa North 3.7 km/h 3.7 km/h 55 % 0 mm
18:35 8.5 °C -0.1 °C 1007 hPa ENE 3.9 km/h 3.9 km/h 55 % 0 mm
18:36 8.5 °C -0.1 °C 1007 hPa ESE 5.6 km/h 5.6 km/h 55 % 0 mm
18:40 4.6 °C -0.8 °C 1012.8 hPa East 3.2 km/h 4.8 km/h 68 % 0 mm
18:41 8.6 °C 0.1 °C 1008 hPa NNW 1.9 km/h   55 % 0 mm
18:42 8.6 °C 0.1 °C 1008 hPa NNE 1.9 km/h   55 % 0 mm
18:46 8.5 °C -0.1 °C 1008 hPa NNE 3.7 km/h 3.7 km/h 55 % 0 mm
18:49 8.5 °C -0.1 °C 1008 hPa West 5.6 km/h 5.6 km/h 55 % 0 mm
18:50 4.3 °C -1.3 °C 1012.8 hPa Calm   3.2 km/h 67 % 0 mm
18:54 8.5 °C -0.1 °C 1009 hPa West 7.4 km/h 7.4 km/h 55 % 0 mm
18:56 8.4 °C -0.1 °C 1009 hPa WNW 1.9 km/h 2.6 km/h 55 % 0 mm
18:57 8.4 °C -0.1 °C 1009 hPa ENE 3.7 km/h 3.7 km/h 55 % 0 mm
19:00 4.1 °C -1.3 °C 1012.8 hPa Calm     68 % 0 mm
19:01 8.2 °C -0.3 °C 1009 hPa ENE 1.9 km/h 2.3 km/h 55 % 0 mm
19:06 8 °C -0.5 °C 1009 hPa Calm     55 % 0 mm
19:07 8 °C -0.5 °C 1009 hPa East 3.5 km/h   55 % 0 mm
19:10 4.1 °C -1.3 °C 1013.8 hPa Calm   4.8 km/h 68 % 0 mm
19:11 7.8 °C -0.7 °C 1008 hPa NE 1.9 km/h   55 % 0 mm
19:12 7.8 °C -0.7 °C 1008 hPa NE 1.9 km/h   55 % 0 mm
19:17 7.7 °C -0.8 °C 1008 hPa NE 1.9 km/h   55 % 0 mm
19:18 7.7 °C -0.8 °C 1008 hPa ENE 1.9 km/h   55 % 0 mm
19:20 7.6 °C -0.6 °C 1008 hPa NE 1.9 km/h 1.9 km/h 56 % 0 mm
19:25 7.5 °C -0.7 °C 1008 hPa NE 1.9 km/h   56 % 0 mm
19:30 7.4 °C -0.8 °C 1008 hPa WNW 1.9 km/h   56 % 0 mm
19:31 7.3 °C -0.9 °C 1008 hPa WNW 1.9 km/h 1.9 km/h 56 % 0 mm
19:36 7.2 °C -1 °C 1008 hPa North 1.9 km/h   56 % 0 mm
19:40 4.3 °C -0.9 °C 1013.8 hPa ENE 3.2 km/h 4.8 km/h 69 % 0 mm
19:41 7.1 °C -1.1 °C 1009 hPa Calm     56 % 0 mm
19:43 7.1 °C -1.1 °C 1009 hPa Calm     56 % 0 mm
19:45 7 °C -0.9 °C 1009 hPa WNW 1.9 km/h   57 % 0 mm
19:48 6.9 °C -1.1 °C 1009 hPa NNE 3.7 km/h 3.7 km/h 57 % 0 mm
19:50 4.2 °C -1.2 °C 1013.8 hPa NNE 4.8 km/h 6.4 km/h 68 % 0 mm
19:51 6.9 °C -1.1 °C 1009 hPa NNE 3.7 km/h 3.7 km/h 57 % 0 mm
19:54 6.9 °C -1.1 °C 1008 hPa NNE 4.7 km/h 4.7 km/h 57 % 0 mm
19:58 6.9 °C -0.8 °C 1008 hPa NE 3.7 km/h 3.7 km/h 58 % 0 mm
20:00 4.2 °C -1.2 °C 1013.8 hPa NNE 1.6 km/h 8 km/h 68 % 0 mm
20:03 6.8 °C -0.9 °C 1008 hPa NE 5.6 km/h 5.6 km/h 58 % 0 mm
20:08 6.7 °C -1 °C 1008 hPa ENE 4.7 km/h 4.7 km/h 58 % 0 mm
20:09 6.7 °C -1 °C 1008 hPa East 5.3 km/h 5.3 km/h 58 % 0 mm
20:10 4.3 °C -1.1 °C 1013.8 hPa North 1.6 km/h 3.2 km/h 68 % 0 mm
20:20 4.4 °C -0.8 °C 1013.8 hPa NW 3.2 km/h 6.4 km/h 69 % 0 mm
20:30 4.6 °C -0.6 °C 1013.8 hPa WNW 1.6 km/h 1.6 km/h 69 % 0 mm
20:40 4.6 °C -0.6 °C 1012.8 hPa SSW 1.6 km/h 3.2 km/h 69 % 0 mm
20:50 4.4 °C -0.8 °C 1013.8 hPa Calm   3.2 km/h 69 % 0 mm
21:00 4.3 °C -0.9 °C 1013.8 hPa Calm     69 % 0 mm
21:10 4.2 °C -1 °C 1013.8 hPa Calm     69 % 0 mm
21:20 4 °C -1.2 °C 1014.8 hPa SW 3.2 km/h 3.2 km/h 69 % 0 mm
21:30 3.8 °C -1.2 °C 1014.8 hPa Calm     70 % 0 mm
21:40 3.7 °C -1.3 °C 1013.8 hPa Calm   3.2 km/h 70 % 0 mm
21:42 6.1 °C -0.4 °C 1010 hPa NNE 7.4 km/h 7.4 km/h 63 % 0 mm
21:43 6.1 °C -0.4 °C 1010 hPa NNE 7.4 km/h 7.4 km/h 63 % 0 mm
21:45 6.1 °C -0.4 °C 1010 hPa ESE 5.6 km/h 5.6 km/h 63 % 0 mm
21:50 6 °C -0.5 °C 1010 hPa ESE 3.7 km/h 3.7 km/h 63 % 0 mm
21:51 6 °C -0.5 °C 1010 hPa ENE 3.7 km/h 3.7 km/h 63 % 0 mm
21:52 6 °C -0.5 °C 1010 hPa NNE 1.9 km/h   63 % 0 mm
21:56 5.9 °C -0.6 °C 1010 hPa ENE 3.7 km/h 3.7 km/h 63 % 0 mm
22:00 5.9 °C -0.6 °C 1010 hPa NW 1.9 km/h   63 % 0 mm
22:02 5.8 °C -0.7 °C 1010 hPa ENE 2.6 km/h 2.6 km/h 63 % 0 mm
22:03 5.8 °C -0.7 °C 1010 hPa NNE 1.9 km/h 1.9 km/h 63 % 0 mm
22:10 5.8 °C -0.7 °C 1010 hPa ENE 3.7 km/h   63 % 0 mm
22:15 5.6 °C -0.9 °C 1010 hPa ENE 5.6 km/h 5.6 km/h 63 % 0 mm
22:20 5.5 °C -1 °C 1010 hPa NNE 2.6 km/h   63 % 0 mm
22:25 5.4 °C -0.9 °C 1010.7 hPa NE 3.9 km/h 3.9 km/h 64 % 0 mm
22:26 5.4 °C -0.9 °C 1010.7 hPa NE 3.9 km/h 3.9 km/h 64 % 0 mm
22:30 5.3 °C -0.9 °C 1010.7 hPa NE 1.6 km/h 3.2 km/h 64 % 0 mm
22:34 5.2 °C -1.1 °C 1010.7 hPa NE 3.7 km/h 3.7 km/h 64 % 0 mm
22:39 5.1 °C -1.2 °C 1010.7 hPa NNE 5.6 km/h 5.6 km/h 64 % 0 mm
22:40 5.1 °C -1.2 °C 1010.7 hPa NNE 5.8 km/h 5.8 km/h 64 % 0 mm
22:45 5.1 °C -1.2 °C 1010.7 hPa NW 1.9 km/h   64 % 0 mm
22:46 5.2 °C -1.1 °C 1010.7 hPa WNW 1.9 km/h   64 % 0 mm
22:50 3.2 °C -1.4 °C 1014.8 hPa North 3.2 km/h 4.8 km/h 72 % 0 mm
22:51 5.2 °C -1.1 °C 1010.7 hPa North 1.9 km/h   64 % 0 mm
22:55 5.2 °C -1.1 °C 1011.7 hPa WNW 1.9 km/h 1.9 km/h 64 % 0 mm
22:58 5.2 °C -1.1 °C 1011.7 hPa NE 3.7 km/h 3.7 km/h 64 % 0 mm
23:00 5.3 °C -0.8 °C 1011.7 hPa NE 2.3 km/h 2.3 km/h 65 % 0 mm
23:04 5.3 °C -0.8 °C 1011.7 hPa NNE 3.7 km/h   65 % 0 mm
23:06 5.3 °C -0.8 °C 1011.7 hPa NNE 3.7 km/h 3.7 km/h 65 % 0 mm
23:11 5.2 °C -0.8 °C 1011.7 hPa NE 2.3 km/h 2.3 km/h 65 % 0 mm
23:12 5.2 °C -0.8 °C 1011.7 hPa NW 2.3 km/h 2.3 km/h 65 % 0 mm
23:13 5.2 °C -0.8 °C 1011.7 hPa NW 1.9 km/h 1.9 km/h 65 % 0 mm
23:17 5.2 °C -0.8 °C 1011.7 hPa NNE 2.6 km/h 2.6 km/h 65 % 0 mm
23:20 5.2 °C -0.8 °C 1011.7 hPa NNE 3.2 km/h 3.2 km/h 65 % 0 mm
23:24 5.2 °C -0.8 °C 1010.7 hPa NNE 3.7 km/h 3.7 km/h 65 % 0 mm
23:29 5.2 °C -0.8 °C 1010.7 hPa North 1.9 km/h 1.9 km/h 65 % 0 mm
23:30 3 °C -1.6 °C 1013.8 hPa Calm   1.6 km/h 72 % 0 mm
23:34 5.2 °C -0.7 °C 1010.7 hPa NNE 1.9 km/h   66 % 0 mm
23:36 5.2 °C -0.7 °C 1010.7 hPa NNE 1.9 km/h 1.9 km/h 66 % 0 mm
23:40 5.2 °C -0.7 °C 1011.7 hPa NE 1.9 km/h 1.9 km/h 66 % 0 mm
23:42 5.2 °C -0.7 °C 1011.7 hPa NNE 1.9 km/h 1.9 km/h 66 % 0 mm
23:47 5.1 °C -0.9 °C 1011.7 hPa WNW 1.9 km/h   65 % 0 mm
23:49 5.1 °C -0.7 °C 1011.7 hPa ENE 2.3 km/h   66 % 0 mm
23:50 5.1 °C -0.7 °C 1011.7 hPa North 2.3 km/h 2.3 km/h 66 % 0 mm
23:55 5.1 °C -0.7 °C 1011.7 hPa NE 5.6 km/h 5.6 km/h 66 % 0 mm
23:56 5.1 °C -0.7 °C 1011.7 hPa NNE 3.9 km/h 3.9 km/h 66 % 0 mm
Meteo Sesrovires
Elogis d' Weather Underground - 1.5 mb

Guio original per  Jim McMurry - jmcmurry@mwt.net Adaptat per a la plantilla per  Wim van der Kuil - Leuven-Template.eu

Trobareu la nostra informacio del temps tambe a:

Weather Underground

AWEKAS